createdAt,value
2023-04-15T00:00:24.275Z,100588.97
2023-04-15T00:03:28.616Z,100589.72
2023-04-15T00:06:31.759Z,100593.94
2023-04-15T00:09:34.418Z,100584.28
2023-04-15T00:12:37.089Z,100583.88
2023-04-15T00:15:39.758Z,100580.09
2023-04-15T00:18:43.792Z,100579.16
2023-04-15T00:21:46.441Z,100579.19
2023-04-15T00:24:49.077Z,100575.03
2023-04-15T00:27:51.695Z,100568.72
2023-04-15T00:30:54.403Z,100577.03
2023-04-15T00:33:58.478Z,100575.41
2023-04-15T00:37:01.122Z,100566.81
2023-04-15T00:40:04.960Z,100570.13
2023-04-15T00:43:07.705Z,100569.88
2023-04-15T00:46:10.975Z,100573.97
2023-04-15T00:49:15.197Z,100576.69
2023-04-15T00:52:18.052Z,100577.53
2023-04-15T00:55:20.902Z,100572.75
2023-04-15T00:58:24.387Z,100566.69
2023-04-15T01:01:27.715Z,100571.50
2023-04-15T01:04:32.046Z,100566.19
2023-04-15T01:07:34.830Z,100562.63
2023-04-15T01:10:37.911Z,100550.50
2023-04-15T01:13:41.456Z,100561.66
2023-04-15T01:16:45.290Z,100553.75
2023-04-15T01:19:49.558Z,100551.19
2023-04-15T01:22:52.691Z,100547.81
2023-04-15T01:25:58.433Z,100548.22
2023-04-15T01:29:01.417Z,100541.94
2023-04-15T01:32:04.462Z,100544.84
2023-04-15T01:35:07.777Z,100535.50
2023-04-15T01:38:12.373Z,100537.22
2023-04-15T01:41:16.351Z,100546.31
2023-04-15T01:44:18.962Z,100543.78
2023-04-15T01:47:21.816Z,100538.88
2023-04-15T01:50:24.939Z,100533.31
2023-04-15T01:53:27.628Z,100535.94
2023-04-15T01:56:31.655Z,100524.59
2023-04-15T01:59:34.318Z,100528.88
2023-04-15T02:02:37.075Z,100528.34
2023-04-15T02:05:39.763Z,100513.00
2023-04-15T02:08:42.531Z,100508.31
2023-04-15T02:11:46.911Z,100507.69
2023-04-15T02:14:49.507Z,100515.03
2023-04-15T02:17:55.131Z,100510.06
2023-04-15T02:20:58.546Z,100516.94
2023-04-15T02:24:02.266Z,100510.06
2023-04-15T02:27:06.342Z,100510.59
2023-04-15T02:30:09.623Z,100509.66
2023-04-15T02:33:12.700Z,100505.97
2023-04-15T02:36:15.614Z,100505.13
2023-04-15T02:39:18.749Z,100514.25
2023-04-15T02:42:22.787Z,100520.88
2023-04-15T02:45:27.536Z,100517.94
2023-04-15T02:48:30.287Z,100517.31
2023-04-15T02:51:32.950Z,100518.66
2023-04-15T02:54:35.632Z,100516.66
2023-04-15T02:57:41.035Z,100514.94
2023-04-15T03:00:43.713Z,100518.44
2023-04-15T03:03:46.651Z,100523.84
2023-04-15T03:06:49.427Z,100524.44
2023-04-15T03:09:52.400Z,100523.47
2023-04-15T03:12:56.408Z,100520.84
2023-04-15T03:15:59.034Z,100508.44
2023-04-15T03:19:02.011Z,100518.97
2023-04-15T03:22:04.832Z,100512.13
2023-04-15T03:25:07.729Z,100508.56
2023-04-15T03:28:11.737Z,100511.28
2023-04-15T03:31:14.665Z,100504.88
2023-04-15T03:34:17.419Z,100502.03
2023-04-15T03:37:20.006Z,100504.00
2023-04-15T03:40:22.902Z,100500.19
2023-04-15T03:43:27.241Z,100496.78
2023-04-15T03:46:30.021Z,100502.63
2023-04-15T03:49:32.678Z,100510.59
2023-04-15T03:52:35.404Z,100516.69
2023-04-15T03:55:38.075Z,100516.47
2023-04-15T03:58:42.155Z,100518.09
2023-04-15T04:01:44.855Z,100529.38
2023-04-15T04:04:47.606Z,100519.19
2023-04-15T04:07:50.620Z,100520.88
2023-04-15T04:10:53.224Z,100513.50
2023-04-15T04:13:57.271Z,100515.28
2023-04-15T04:16:59.962Z,100510.28
2023-04-15T04:20:02.666Z,100503.03
2023-04-15T04:23:05.544Z,100503.28
2023-04-15T04:26:08.179Z,100508.44
2023-04-15T04:29:12.166Z,100510.31
2023-04-15T04:32:14.915Z,100507.75
2023-04-15T04:35:17.627Z,100507.53
2023-04-15T04:38:20.263Z,100515.34
2023-04-15T04:41:22.992Z,100518.53
2023-04-15T04:44:27.008Z,100521.13
2023-04-15T04:47:30.141Z,100523.22
2023-04-15T04:50:33.316Z,100522.25
2023-04-15T04:53:37.382Z,100517.06
2023-04-15T04:56:40.301Z,100524.84
2023-04-15T04:59:44.351Z,100517.19
2023-04-15T05:02:47.305Z,100519.53
2023-04-15T05:05:50.234Z,100530.25
2023-04-15T05:08:52.944Z,100535.84
2023-04-15T05:11:56.096Z,100534.56
2023-04-15T05:15:00.160Z,100528.75
2023-04-15T05:18:02.797Z,100523.97
2023-04-15T05:21:06.253Z,100529.19
2023-04-15T05:24:08.980Z,100527.03
2023-04-15T05:27:11.795Z,100525.09
2023-04-15T05:30:16.010Z,100527.34
2023-04-15T05:33:19.045Z,100532.28
2023-04-15T05:36:21.680Z,100537.13
2023-04-15T05:39:24.376Z,100541.16
2023-04-15T05:42:27.050Z,100545.53
2023-04-15T05:45:31.247Z,100538.59
2023-04-15T05:48:33.884Z,100540.66
2023-04-15T05:51:36.992Z,100541.41
2023-04-15T05:54:39.609Z,100538.38
2023-04-15T05:57:42.257Z,100539.72
2023-04-15T06:00:46.319Z,100541.44
2023-04-15T06:03:49.439Z,100545.44
2023-04-15T06:06:52.164Z,100548.34
2023-04-15T06:09:54.868Z,100549.97
2023-04-15T06:12:57.637Z,100566.19
2023-04-15T06:16:01.698Z,100569.44
2023-04-15T06:19:04.462Z,100571.16
2023-04-15T06:22:07.936Z,100577.38
2023-04-15T06:25:10.976Z,100571.31
2023-04-15T06:28:13.636Z,100583.06
2023-04-15T06:31:17.680Z,100574.69
2023-04-15T06:34:20.346Z,100576.16
2023-04-15T06:37:22.988Z,100584.81
2023-04-15T06:40:25.932Z,100587.91
2023-04-15T06:43:28.617Z,100598.31
2023-04-15T06:46:32.724Z,100589.66
2023-04-15T06:49:35.423Z,100595.34
2023-04-15T06:52:38.125Z,100592.13
2023-04-15T06:55:41.425Z,100584.31
2023-04-15T06:58:44.080Z,100591.34
2023-04-15T07:01:48.468Z,100592.63
2023-04-15T07:04:51.125Z,100589.47
2023-04-15T07:07:53.732Z,100596.28
2023-04-15T07:10:57.097Z,100604.75
2023-04-15T07:13:59.822Z,100607.38
2023-04-15T07:17:03.837Z,100605.50
2023-04-15T07:20:07.747Z,100603.66
2023-04-15T07:23:10.535Z,100611.16
2023-04-15T07:26:13.853Z,100600.00
2023-04-15T07:29:16.502Z,100615.91
2023-04-15T07:32:20.868Z,100622.44
2023-04-15T07:35:23.622Z,100625.34
2023-04-15T07:38:27.204Z,100627.00
2023-04-15T07:41:30.156Z,100620.47
2023-04-15T07:44:33.066Z,100623.25
2023-04-15T07:47:37.218Z,100631.00
2023-04-15T07:50:40.261Z,100635.44
2023-04-15T07:53:43.304Z,100636.13
2023-04-15T07:56:46.075Z,100640.94
2023-04-15T07:59:48.703Z,100636.66
2023-04-15T08:02:53.770Z,100641.88
2023-04-15T08:05:56.645Z,100647.84
2023-04-15T08:08:59.261Z,100645.88
2023-04-15T08:12:02.045Z,100648.25
2023-04-15T08:15:05.586Z,100649.72
2023-04-15T08:18:09.620Z,100650.06
2023-04-15T08:21:12.582Z,100652.94
2023-04-15T08:24:15.579Z,100652.56
2023-04-15T08:27:18.872Z,100661.19
2023-04-15T08:30:21.608Z,100658.28
2023-04-15T08:33:25.674Z,100658.81
2023-04-15T08:36:28.470Z,100665.91
2023-04-15T08:39:31.116Z,100662.81
2023-04-15T08:42:38.035Z,100663.53
2023-04-15T08:45:40.922Z,100665.31
2023-04-15T08:48:45.518Z,100666.66
2023-04-15T08:51:48.694Z,100672.72
2023-04-15T08:54:52.166Z,100676.19
2023-04-15T08:57:54.834Z,100673.41
2023-04-15T09:00:58.364Z,100673.88
2023-04-15T09:04:06.571Z,100677.84
2023-04-15T09:07:09.362Z,100682.28
2023-04-15T09:10:12.743Z,100676.41
2023-04-15T09:13:15.449Z,100685.72
2023-04-15T09:16:18.825Z,100679.22
2023-04-15T09:19:24.873Z,100674.19
2023-04-15T09:22:33.229Z,100674.84
2023-04-15T09:25:36.127Z,100682.84
2023-04-15T09:28:43.451Z,100689.31
2023-04-15T09:31:46.393Z,100685.78
2023-04-15T09:34:50.687Z,100686.81
2023-04-15T09:37:54.115Z,100690.31
2023-04-15T09:40:57.147Z,100691.72
2023-04-15T09:43:59.990Z,100683.75
2023-04-15T09:47:02.899Z,100694.63
2023-04-15T09:50:07.804Z,100697.28
2023-04-15T09:53:11.046Z,100698.41
2023-04-15T09:56:13.700Z,100699.47
2023-04-15T09:59:16.447Z,100694.81
2023-04-15T10:02:21.319Z,100688.53
2023-04-15T10:05:26.486Z,100693.03
2023-04-15T10:08:31.426Z,100700.69
2023-04-15T10:11:36.185Z,100698.44
2023-04-15T10:14:39.824Z,100702.06
2023-04-15T10:17:45.604Z,100713.50
2023-04-15T10:20:50.313Z,100713.25
2023-04-15T10:23:53.197Z,100716.19
2023-04-15T10:26:57.246Z,100720.31
2023-04-15T10:30:01.765Z,100727.38
2023-04-15T10:33:06.146Z,100727.00
2023-04-15T10:36:10.464Z,100725.44
2023-04-15T10:39:40.790Z,100725.59
2023-04-15T10:42:43.522Z,100727.28
2023-04-15T10:45:46.210Z,100738.88
2023-04-15T10:48:51.186Z,100730.56
2023-04-15T10:52:00.909Z,100736.81
2023-04-15T10:55:05.374Z,100736.56
2023-04-15T10:58:08.043Z,100741.22
2023-04-15T11:01:10.791Z,100747.88
2023-04-15T11:04:13.672Z,100743.16
2023-04-15T11:07:33.940Z,100751.69
2023-04-15T11:10:52.974Z,100752.59
2023-04-15T11:13:57.839Z,100742.28
2023-04-15T11:17:00.548Z,100746.38
2023-04-15T11:20:05.455Z,100740.63
2023-04-15T11:23:15.354Z,100751.19
2023-04-15T11:26:18.500Z,100747.44
2023-04-15T11:29:21.218Z,100743.72
2023-04-15T11:32:23.883Z,100749.31
2023-04-15T11:35:26.726Z,100750.09
2023-04-15T11:38:31.285Z,100755.25
2023-04-15T11:41:34.038Z,100751.94
2023-04-15T11:44:36.708Z,100758.59
2023-04-15T11:47:40.351Z,100760.13
2023-04-15T11:50:43.001Z,100772.44
2023-04-15T11:53:48.271Z,100766.53
2023-04-15T11:56:52.431Z,100766.22
2023-04-15T11:59:56.324Z,100772.91
2023-04-15T12:03:13.299Z,100780.28
2023-04-15T12:06:19.290Z,100777.97
2023-04-15T12:09:23.420Z,100773.88
2023-04-15T12:12:28.536Z,100778.25
2023-04-15T12:15:31.519Z,100788.16
2023-04-15T12:18:34.271Z,100785.91
2023-04-15T12:21:38.124Z,100789.31
2023-04-15T12:24:46.941Z,100791.56
2023-04-15T12:27:53.306Z,100796.66
2023-04-15T12:30:56.091Z,100794.34
2023-04-15T12:33:58.897Z,100800.97
2023-04-15T12:37:03.170Z,100806.31
2023-04-15T12:40:09.759Z,100808.28
2023-04-15T12:43:12.827Z,100808.81
2023-04-15T12:46:15.766Z,100816.13
2023-04-15T12:49:20.732Z,100827.03
2023-04-15T12:52:24.401Z,100825.00
2023-04-15T12:55:28.669Z,100821.38
2023-04-15T12:58:31.492Z,100825.06
2023-04-15T13:01:34.382Z,100834.31
2023-04-15T13:04:37.053Z,100836.66
2023-04-15T13:07:39.732Z,100837.38
2023-04-15T13:10:44.371Z,100840.41
2023-04-15T13:13:47.027Z,100840.66
2023-04-15T13:16:49.840Z,100844.78
2023-04-15T13:19:52.488Z,100848.41
2023-04-15T13:22:55.472Z,100846.59
2023-04-15T13:25:59.498Z,100856.69
2023-04-15T13:29:02.225Z,100852.19
2023-04-15T13:32:05.063Z,100845.81
2023-04-15T13:35:08.249Z,100854.19
2023-04-15T13:38:10.876Z,100856.41
2023-04-15T13:41:14.882Z,100856.66
2023-04-15T13:44:17.504Z,100850.81
2023-04-15T13:47:21.367Z,100849.34
2023-04-15T13:50:25.302Z,100858.50
2023-04-15T13:53:37.930Z,100863.59
2023-04-15T13:56:43.333Z,100866.63
2023-04-15T13:59:45.961Z,100861.75
2023-04-15T14:02:49.167Z,100860.41
2023-04-15T14:05:55.840Z,100870.47
2023-04-15T14:08:58.593Z,100870.91
2023-04-15T14:12:02.574Z,100876.81
2023-04-15T14:15:06.159Z,100874.28
2023-04-15T14:18:08.965Z,100876.69
2023-04-15T14:21:11.694Z,100888.53
2023-04-15T14:24:14.329Z,100888.44
2023-04-15T14:27:18.304Z,100898.56
2023-04-15T14:30:21.128Z,100891.06
2023-04-15T14:33:24.223Z,100897.91
2023-04-15T14:36:27.764Z,100892.78
2023-04-15T14:39:30.488Z,100904.94
2023-04-15T14:42:34.480Z,100916.91
2023-04-15T14:45:40.552Z,100925.41
2023-04-15T14:48:46.109Z,100924.72
2023-04-15T14:51:48.758Z,100928.78
2023-04-15T14:54:51.441Z,100934.06
2023-04-15T14:57:55.586Z,100936.63
2023-04-15T15:00:58.226Z,100940.31
2023-04-15T15:04:01.162Z,100941.63
2023-04-15T15:07:03.897Z,100942.13
2023-04-15T15:10:07.900Z,100946.25
2023-04-15T15:13:11.983Z,100939.69
2023-04-15T15:16:14.888Z,100951.50
2023-04-15T15:19:17.845Z,100953.31
2023-04-15T15:22:21.446Z,100958.47
2023-04-15T15:25:24.345Z,100964.03
2023-04-15T15:28:28.400Z,100964.19
2023-04-15T15:31:31.094Z,100973.53
2023-04-15T15:34:33.799Z,100968.84
2023-04-15T15:37:37.160Z,100961.91
2023-04-15T15:40:40.224Z,100971.44
2023-04-15T15:43:44.353Z,100976.13
2023-04-15T15:46:47.136Z,100981.84
2023-04-15T15:49:49.843Z,100985.69
2023-04-15T15:52:52.612Z,100992.22
2023-04-15T15:55:55.353Z,100993.34
2023-04-15T15:58:59.351Z,100998.94
2023-04-15T16:02:03.025Z,100999.09
2023-04-15T16:05:06.689Z,101012.28
2023-04-15T16:08:09.503Z,101012.13
2023-04-15T16:11:12.189Z,101025.59
2023-04-15T16:14:16.251Z,101025.56
2023-04-15T16:17:18.909Z,101037.66
2023-04-15T16:20:21.632Z,101026.44
2023-04-15T16:23:24.781Z,101033.97
2023-04-15T16:26:27.409Z,101037.94
2023-04-15T16:29:31.504Z,101043.53
2023-04-15T16:32:34.217Z,101049.72
2023-04-15T16:35:36.925Z,101045.25
2023-04-15T16:38:39.639Z,101049.72
2023-04-15T16:41:42.777Z,101048.84
2023-04-15T16:44:46.835Z,101053.97
2023-04-15T16:47:49.626Z,101052.53
2023-04-15T16:50:52.352Z,101055.75
2023-04-15T16:53:55.048Z,101068.44
2023-04-15T16:56:58.471Z,101069.56
2023-04-15T17:00:02.466Z,101081.25
2023-04-15T17:03:06.268Z,101075.19
2023-04-15T17:06:09.245Z,101082.06
2023-04-15T17:09:11.979Z,101087.75
2023-04-15T17:12:15.055Z,101094.56
2023-04-15T17:15:19.445Z,101094.16
2023-04-15T17:18:22.123Z,101102.28
2023-04-15T17:21:24.786Z,101106.81
2023-04-15T17:24:27.573Z,101106.19
2023-04-15T17:27:30.904Z,101111.84
2023-04-15T17:30:34.940Z,101116.13
2023-04-15T17:33:57.661Z,101118.25
2023-04-15T17:37:00.469Z,101123.41
2023-04-15T17:40:03.671Z,101133.19
2023-04-15T17:43:06.667Z,101128.72
2023-04-15T17:46:12.048Z,101131.41
2023-04-15T17:49:14.949Z,101140.28
2023-04-15T17:52:17.645Z,101142.69
2023-04-15T17:55:22.003Z,101141.09
2023-04-15T17:58:24.767Z,101150.97
2023-04-15T18:01:28.866Z,101148.28
2023-04-15T18:04:31.739Z,101150.34
2023-04-15T18:07:35.798Z,101154.66
2023-04-15T18:10:39.508Z,101166.00
2023-04-15T18:13:43.630Z,101168.00
2023-04-15T18:16:49.005Z,101180.50
2023-04-15T18:19:52.409Z,101176.53
2023-04-15T18:22:55.660Z,101184.19
2023-04-15T18:25:58.807Z,101180.09
2023-04-15T18:29:01.554Z,101188.00
2023-04-15T18:32:05.880Z,101190.53
2023-04-15T18:35:09.380Z,101198.03
2023-04-15T18:38:12.024Z,101213.59
2023-04-15T18:41:14.801Z,101213.91
2023-04-15T18:44:17.569Z,101213.81
2023-04-15T18:47:22.032Z,101227.19
2023-04-15T18:50:24.692Z,101228.31
2023-04-15T18:53:27.987Z,101244.19
2023-04-15T18:56:31.381Z,101245.47
2023-04-15T18:59:34.216Z,101254.53
2023-04-15T19:02:38.437Z,101242.13
2023-04-15T19:05:42.359Z,101253.56
2023-04-15T19:08:45.015Z,101249.41
2023-04-15T19:11:47.686Z,101263.06
2023-04-15T19:14:50.427Z,101256.28
2023-04-15T19:17:54.531Z,101259.03
2023-04-15T19:20:57.503Z,101261.16
2023-04-15T19:24:01.124Z,101269.84
2023-04-15T19:27:03.824Z,101282.84
2023-04-15T19:30:08.084Z,101288.34
2023-04-15T19:33:12.095Z,101290.00
2023-04-15T19:36:14.804Z,101289.88
2023-04-15T19:39:17.446Z,101291.53
2023-04-15T19:42:20.111Z,101296.72
2023-04-15T19:45:22.790Z,101302.41
2023-04-15T19:48:26.812Z,101296.97
2023-04-15T19:51:29.531Z,101303.91
2023-04-15T19:54:33.222Z,101307.44
2023-04-15T19:57:35.930Z,101306.41
2023-04-15T20:00:38.607Z,101310.28
2023-04-15T20:03:42.881Z,101317.38
2023-04-15T20:06:45.742Z,101313.56
2023-04-15T20:09:48.352Z,101323.47
2023-04-15T20:12:53.148Z,101317.63
2023-04-15T20:15:56.172Z,101318.66
2023-04-15T20:19:04.059Z,101322.25
2023-04-15T20:22:06.918Z,101319.66
2023-04-15T20:25:10.099Z,101327.25
2023-04-15T20:28:12.868Z,101329.22
2023-04-15T20:31:15.544Z,101333.09
2023-04-15T20:34:19.585Z,101333.56
2023-04-15T20:37:22.279Z,101338.78
2023-04-15T20:40:25.075Z,101334.91
2023-04-15T20:43:27.720Z,101341.97
2023-04-15T20:46:30.513Z,101337.72
2023-04-15T20:49:35.855Z,101344.81
2023-04-15T20:52:39.568Z,101350.22
2023-04-15T20:55:43.442Z,101354.94
2023-04-15T20:58:46.166Z,101349.47
2023-04-15T21:01:49.146Z,101363.00
2023-04-15T21:04:53.199Z,101363.97
2023-04-15T21:07:55.893Z,101362.47
2023-04-15T21:10:58.596Z,101364.84
2023-04-15T21:14:01.238Z,101356.72
2023-04-15T21:17:08.516Z,101366.19
2023-04-15T21:20:14.570Z,101377.41
2023-04-15T21:23:17.222Z,101380.31
2023-04-15T21:26:19.869Z,101377.78
2023-04-15T21:29:22.484Z,101384.31
2023-04-15T21:32:25.191Z,101387.78
2023-04-15T21:35:30.440Z,101384.47
2023-04-15T21:38:33.697Z,101384.06
2023-04-15T21:41:37.529Z,101385.31
2023-04-15T21:44:40.311Z,101391.34
2023-04-15T21:47:56.799Z,101391.38
2023-04-15T21:51:07.169Z,101404.34
2023-04-15T21:54:10.007Z,101400.03
2023-04-15T21:57:12.630Z,101400.31
2023-04-15T22:00:15.946Z,101406.75
2023-04-15T22:03:18.777Z,101406.69
2023-04-15T22:06:23.080Z,101404.88
2023-04-15T22:09:25.918Z,101405.22
2023-04-15T22:12:28.551Z,101417.66
2023-04-15T22:15:31.213Z,101411.94
2023-04-15T22:18:33.839Z,101413.22
2023-04-15T22:21:37.895Z,101415.75
2023-04-15T22:24:40.609Z,101420.78
2023-04-15T22:27:43.397Z,101425.81
2023-04-15T22:30:46.080Z,101424.63
2023-04-15T22:33:48.710Z,101431.81
2023-04-15T22:36:53.606Z,101427.38
2023-04-15T22:39:56.269Z,101434.16
2023-04-15T22:42:58.969Z,101438.38
2023-04-15T22:46:01.759Z,101445.66
2023-04-15T22:49:04.767Z,101450.13
2023-04-15T22:52:10.449Z,101435.41
2023-04-15T22:55:15.513Z,101445.03
2023-04-15T22:58:18.334Z,101445.81
2023-04-15T23:01:21.145Z,101454.94
2023-04-15T23:04:28.238Z,101453.28
2023-04-15T23:07:32.532Z,101461.63
2023-04-15T23:10:35.428Z,101463.41
2023-04-15T23:13:38.092Z,101460.75
2023-04-15T23:16:40.848Z,101462.59
2023-04-15T23:19:44.039Z,101475.91
2023-04-15T23:22:48.030Z,101473.28
2023-04-15T23:25:50.809Z,101466.88
2023-04-15T23:28:53.388Z,101478.69
2023-04-15T23:31:56.146Z,101475.75
2023-04-15T23:34:58.930Z,101478.06
2023-04-15T23:38:02.937Z,101482.81
2023-04-15T23:41:05.662Z,101481.94
2023-04-15T23:44:09.620Z,101487.72
2023-04-15T23:47:12.435Z,101478.06
2023-04-15T23:50:15.045Z,101486.41
2023-04-15T23:53:19.103Z,101485.63
2023-04-15T23:56:21.794Z,101491.78
2023-04-15T23:59:24.512Z,101491.78
